sensor_id;sensor_type;location;lat;lon;timestamp;pressure;altitude;pressure_sealevel;temperature;humidity
31162;BME280;17796;49.296;-117.656;2024-03-22T00:09:28;96100;;;13.92185;34.99246
31162;BME280;17796;49.296;-117.656;2024-03-22T00:24:32;96200;;;13.86691;33.11379
31162;BME280;17796;49.296;-117.656;2024-03-22T00:39:35;96200;;;13.68428;33.47045
31162;BME280;17796;49.296;-117.656;2024-03-22T00:54:39;96200;;;14.21342;35.59525
31162;BME280;17796;49.296;-117.656;2024-03-22T01:09:42;96200;;;13.86945;31.46787
31162;BME280;17796;49.296;-117.656;2024-03-22T01:24:46;96200;;;13.31394;31.06102
31162;BME280;17796;49.296;-117.656;2024-03-22T01:39:50;96200;;;13.29521;31.67794
31162;BME280;17796;49.296;-117.656;2024-03-22T01:54:53;96200;;;12.41702;38.0961
31162;BME280;17796;49.296;-117.656;2024-03-22T02:09:57;96200;;;12.26679;40.71594
31162;BME280;17796;49.296;-117.656;2024-03-22T02:25:00;96200;;;12.01557;41.74233
31162;BME280;17796;49.296;-117.656;2024-03-22T02:40:05;96300;;;11.51788;44.54968
31162;BME280;17796;49.296;-117.656;2024-03-22T02:55:09;96300;;;10.88299;44.61499
31162;BME280;17796;49.296;-117.656;2024-03-22T03:10:13;96300;;;10.50632;45.06766
31162;BME280;17796;49.296;-117.656;2024-03-22T03:25:16;96300;;;9.54145;51.79493
31162;BME280;17796;49.296;-117.656;2024-03-22T03:40:20;96300;;;9.21274;54.49933
31162;BME280;17796;49.296;-117.656;2024-03-22T03:55:23;96300;;;8.97518;52.64855
31162;BME280;17796;49.296;-117.656;2024-03-22T04:10:27;96300;;;8.43083;53.33205
31162;BME280;17796;49.296;-117.656;2024-03-22T04:25:30;96400;;;8.29617;55.9676
31162;BME280;17796;49.296;-117.656;2024-03-22T04:40:34;96400;;;8.16183;55.93416
31162;BME280;17796;49.296;-117.656;2024-03-22T04:55:37;96400;;;8.21296;62.06515
31162;BME280;17796;49.296;-117.656;2024-03-22T05:10:41;96400;;;8.2317;59.26324
31162;BME280;17796;49.296;-117.656;2024-03-22T05:25:45;96400;;;8.1523;59.4329
31162;BME280;17796;49.296;-117.656;2024-03-22T05:40:49;96400;;;8.02431;63.47436
31162;BME280;17796;49.296;-117.656;2024-03-22T05:55:53;96400;;;7.38977;70.80527
31162;BME280;17796;49.296;-117.656;2024-03-22T06:10:57;96400;;;7.41803;66.57909
31162;BME280;17796;49.296;-117.656;2024-03-22T06:26:00;96400;;;7.56857;67.03498
31162;BME280;17796;49.296;-117.656;2024-03-22T06:41:05;96400;;;7.65972;68.04467
31162;BME280;17796;49.296;-117.656;2024-03-22T06:56:08;96400;;;6.47067;79.34698
31162;BME280;17796;49.296;-117.656;2024-03-22T07:11:12;96400;;;7.2459;68.97418
31162;BME280;17796;49.296;-117.656;2024-03-22T07:26:15;96400;;;7.55968;65.83545
31162;BME280;17796;49.296;-117.656;2024-03-22T07:41:19;96400;;;7.22367;67.78643
31162;BME280;17796;49.296;-117.656;2024-03-22T07:56:23;96500;;;6.60755;70.84101
31162;BME280;17796;49.296;-117.656;2024-03-22T08:11:27;96500;;;6.41446;72.6811
31162;BME280;17796;49.296;-117.656;2024-03-22T08:26:31;96500;;;6.73426;68.43731
31162;BME280;17796;49.296;-117.656;2024-03-22T08:41:34;96500;;;6.64216;70.21002
31162;BME280;17796;49.296;-117.656;2024-03-22T08:56:38;96500;;;7.09695;68.9191
31162;BME280;17796;49.296;-117.656;2024-03-22T09:11:42;96500;;;6.54403;71.44177
31162;BME280;17796;49.296;-117.656;2024-03-22T09:26:45;96500;;;6.8956;69.28872
31162;BME280;17796;49.296;-117.656;2024-03-22T09:41:50;96500;;;6.62883;73.40348
31162;BME280;17796;49.296;-117.656;2024-03-22T09:56:54;96500;;;6.59802;70.33458
31162;BME280;17796;49.296;-117.656;2024-03-22T10:12:01;96500;;;5.67004;79.58603
31162;BME280;17796;49.296;-117.656;2024-03-22T10:27:05;96500;;;5.87742;75.51456
31162;BME280;17796;49.296;-117.656;2024-03-22T10:42:08;96500;;;6.14705;74.83938
31162;BME280;17796;49.296;-117.656;2024-03-22T10:57:13;96500;;;6.45606;67.95643
31162;BME280;17796;49.296;-117.656;2024-03-22T11:12:19;96500;;;4.8294;82.01014
31162;BME280;17796;49.296;-117.656;2024-03-22T11:27:23;96500;;;5.41534;79.42889
31162;BME280;17796;49.296;-117.656;2024-03-22T11:42:26;96500;;;6.09115;72.67747
31162;BME280;17796;49.296;-117.656;2024-03-22T11:57:30;96500;;;4.69507;84.09102
31162;BME280;17796;49.296;-117.656;2024-03-22T12:12:34;96500;;;5.89584;75.01198
31162;BME280;17796;49.296;-117.656;2024-03-22T12:27:38;96500;;;6.02954;76.59157
31162;BME280;17796;49.296;-117.656;2024-03-22T12:42:41;96500;;;5.91807;78.63027
31162;BME280;17796;49.296;-117.656;2024-03-22T12:57:45;96400;;;5.73133;75.05884
31162;BME280;17796;49.296;-117.656;2024-03-22T13:12:49;96500;;;5.4598;76.93361
31162;BME280;17796;49.296;-117.656;2024-03-22T13:27:53;96500;;;5.63415;76.62831
31162;BME280;17796;49.296;-117.656;2024-03-22T13:42:57;96500;;;5.84947;73.78894
31162;BME280;17796;49.296;-117.656;2024-03-22T13:58:01;96500;;;5.85487;71.84347
31162;BME280;17796;49.296;-117.656;2024-03-22T14:13:06;96500;;;5.80851;77.98909
31162;BME280;17796;49.296;-117.656;2024-03-22T14:28:09;96500;;;5.64622;78.30052
31162;BME280;17796;49.296;-117.656;2024-03-22T14:43:13;96500;;;6.10703;78.74764
31162;BME280;17796;49.296;-117.656;2024-03-22T14:58:18;96500;;;5.96539;85.66319
31162;BME280;17796;49.296;-117.656;2024-03-22T15:13:21;96400;;;8.19994;75.50296
31162;BME280;17796;49.296;-117.656;2024-03-22T15:28:25;96400;;;10.35355;59.96036
31162;BME280;17796;49.296;-117.656;2024-03-22T15:43:30;96400;;;10.38436;58.64005
31162;BME280;17796;49.296;-117.656;2024-03-22T15:58:33;96400;;;8.81829;61.32518
31162;BME280;17796;49.296;-117.656;2024-03-22T16:13:37;96400;;;10.4104;56.22112
31162;BME280;17796;49.296;-117.656;2024-03-22T16:28:41;96400;;;10.71403;54.19308
31162;BME280;17796;49.296;-117.656;2024-03-22T16:43:44;96400;;;10.5168;51.84682
31162;BME280;17796;49.296;-117.656;2024-03-22T16:58:48;96400;;;9.90352;52.16623
31162;BME280;17796;49.296;-117.656;2024-03-22T17:13:52;96400;;;10.58445;52.13646
31162;BME280;17796;49.296;-117.656;2024-03-22T17:28:55;96400;;;10.06708;51.88965
31162;BME280;17796;49.296;-117.656;2024-03-22T17:44:00;96300;;;10.10043;53.35502
31162;BME280;17796;49.296;-117.656;2024-03-22T17:59:04;96300;;;10.0909;52.16639
31162;BME280;17796;49.296;-117.656;2024-03-22T18:14:07;96300;;;10.31449;53.28333
31162;BME280;17796;49.296;-117.656;2024-03-22T18:29:11;96300;;;10.53585;50.72503
31162;BME280;17796;49.296;-117.656;2024-03-22T18:44:15;96300;;;10.9824;49.44951
31162;BME280;17796;49.296;-117.656;2024-03-22T18:59:22;96300;;;9.94226;52.19558
31162;BME280;17796;49.296;-117.656;2024-03-22T19:14:26;96200;;;11.44483;50.00915
31162;BME280;17796;49.296;-117.656;2024-03-22T19:29:30;96200;;;10.74102;46.04321
31162;BME280;17796;49.296;-117.656;2024-03-22T19:44:34;96200;;;10.98558;47.40407
31162;BME280;17796;49.296;-117.656;2024-03-22T19:59:38;96200;;;12.79338;38.27732
31162;BME280;17796;49.296;-117.656;2024-03-22T20:14:42;96100;;;11.86057;44.15157
31162;BME280;17796;49.296;-117.656;2024-03-22T20:29:45;96100;;;12.86389;42.21934
